Time;durP1;ratioP1;P1;durP2;ratioP2;P2;SDS_P1;SDS_P2;PMS_P1;PMS_P2;Temp;Humidity;BMP_temperature;BMP_pressure;BME280_temperature;BME280_humidity;BME280_pressure;Samples;Min_cycle;Max_cycle;Signal;HPM_P1;HPM_P2
2023/12/08 00:00:00;;;;;;;22.83;15.80;;;2.00;99.90;;;;;;5095123;28;20449;-72
2023/12/08 00:02:26;;;;;;;22.05;14.32;;;1.90;99.90;;;;;;5095080;28;20122;-73
2023/12/08 00:04:52;;;;;;;23.55;15.15;;;1.90;99.90;;;;;;5094897;28;20075;-72
2023/12/08 00:07:18;;;;;;;21.38;14.15;;;1.80;99.90;;;;;;5078136;28;20049;-72
2023/12/08 00:09:43;;;;;;;21.10;11.80;;;1.80;99.90;;;;;;5078629;28;20127;-72
2023/12/08 00:12:09;;;;;;;20.30;11.75;;;1.80;99.90;;;;;;5095073;28;20101;-72
2023/12/08 00:14:35;;;;;;;20.80;13.80;;;1.80;99.90;;;;;;5094806;28;20062;-72
2023/12/08 00:17:00;;;;;;;23.70;15.88;;;1.90;99.90;;;;;;5078077;28;20039;-72
2023/12/08 00:19:26;;;;;;;24.00;14.75;;;2.00;99.90;;;;;;5078072;28;20035;-73
2023/12/08 00:21:52;;;;;;;23.27;13.82;;;1.80;99.90;;;;;;5094954;28;20173;-71
2023/12/08 00:24:17;;;;;;;21.77;14.82;;;1.80;99.90;;;;;;5077908;28;20031;-72
2023/12/08 00:26:43;;;;;;;16.30;9.38;;;1.80;99.90;;;;;;5078235;28;20036;-73
2023/12/08 00:29:09;;;;;;;23.05;15.93;;;1.90;99.90;;;;;;5094698;28;20039;-73
2023/12/08 00:31:34;;;;;;;20.83;11.70;;;1.80;99.90;;;;;;5095001;28;20040;-72
2023/12/08 00:34:00;;;;;;;20.83;13.55;;;1.80;99.90;;;;;;5094682;28;20075;-72
2023/12/08 00:36:26;;;;;;;19.65;10.68;;;2.00;99.90;;;;;;5094887;28;20055;-72
2023/12/08 00:38:53;;;;;;;21.33;12.80;;;1.80;99.90;;;;;;5094595;28;20048;-72
2023/12/08 00:41:19;;;;;;;19.38;13.00;;;1.80;99.90;;;;;;5094639;28;20074;-72
2023/12/08 00:43:45;;;;;;;22.70;12.93;;;1.90;99.90;;;;;;5094767;28;20067;-72
2023/12/08 00:46:10;;;;;;;17.98;10.57;;;1.80;99.90;;;;;;5078109;28;20035;-72
2023/12/08 00:48:36;;;;;;;25.35;17.45;;;1.80;99.90;;;;;;5094593;28;20074;-72
2023/12/08 00:51:02;;;;;;;18.33;11.60;;;1.80;99.90;;;;;;5094597;28;20077;-72
2023/12/08 00:53:28;;;;;;;22.58;14.60;;;1.80;99.90;;;;;;5094486;28;20043;-73
2023/12/08 00:55:54;;;;;;;23.42;12.93;;;1.80;99.90;;;;;;5077572;28;20055;-72
2023/12/08 00:58:20;;;;;;;27.95;18.08;;;1.70;99.90;;;;;;5094235;28;20108;-72
2023/12/08 01:00:45;;;;;;;24.08;16.35;;;1.70;99.90;;;;;;5077480;28;20540;-72
2023/12/08 01:03:12;;;;;;;25.90;16.65;;;1.60;99.90;;;;;;5094588;28;20374;-72
2023/12/08 01:05:38;;;;;;;25.30;15.50;;;1.60;99.90;;;;;;5098228;28;20071;-73
2023/12/08 01:08:05;;;;;;;28.13;18.52;;;1.60;99.90;;;;;;5098348;28;20372;-73
2023/12/08 01:10:31;;;;;;;24.88;16.70;;;1.60;99.90;;;;;;5098183;28;20092;-67
2023/12/08 01:12:56;;;;;;;24.10;16.50;;;1.60;99.90;;;;;;5098098;28;20051;-67
2023/12/08 01:15:22;;;;;;;21.67;12.32;;;1.60;99.90;;;;;;5098031;28;20055;-67
2023/12/08 01:17:48;;;;;;;25.58;16.60;;;1.60;99.90;;;;;;5098102;28;20086;-67
2023/12/08 01:20:13;;;;;;;21.45;11.65;;;1.70;99.90;;;;;;5097803;28;20039;-67
2023/12/08 01:22:39;;;;;;;26.98;17.38;;;1.90;99.90;;;;;;5097814;28;20059;-68
2023/12/08 01:25:06;;;;;;;24.75;16.20;;;1.70;99.90;;;;;;5081383;28;20035;-67
2023/12/08 01:27:31;;;;;;;26.25;16.02;;;1.70;99.90;;;;;;5097795;28;20058;-67
2023/12/08 01:29:57;;;;;;;23.00;14.27;;;1.70;99.90;;;;;;5081127;28;20035;-68
2023/12/08 01:32:23;;;;;;;24.73;17.02;;;1.70;99.90;;;;;;5080885;28;20069;-67
2023/12/08 01:34:48;;;;;;;26.58;17.38;;;1.70;99.90;;;;;;5097541;28;20047;-67
2023/12/08 01:37:14;;;;;;;25.73;17.10;;;1.70;99.90;;;;;;5097530;28;20491;-67
2023/12/08 01:39:40;;;;;;;24.08;15.18;;;1.70;99.90;;;;;;5097539;28;20063;-67
2023/12/08 01:42:05;;;;;;;13.82;6.75;;;1.70;99.90;;;;;;5097406;28;20046;-67
2023/12/08 01:44:31;;;;;;;20.73;13.00;;;1.70;99.90;;;;;;5080542;28;20107;-68
2023/12/08 01:46:57;;;;;;;12.80;6.68;;;1.70;99.90;;;;;;5097360;28;20530;-67
2023/12/08 01:49:23;;;;;;;19.80;11.38;;;1.70;99.90;;;;;;5097252;28;20040;-67
2023/12/08 01:51:49;;;;;;;18.27;10.25;;;1.70;99.90;;;;;;5097268;28;20035;-67
2023/12/08 01:54:16;;;;;;;24.30;15.02;;;1.80;99.90;;;;;;5097170;28;20044;-67
2023/12/08 01:56:42;;;;;;;16.63;7.63;;;1.70;99.90;;;;;;5097078;28;20593;-67
2023/12/08 01:59:08;;;;;;;27.00;17.55;;;1.70;99.90;;;;;;5097047;28;20122;-67
2023/12/08 02:01:34;;;;;;;26.15;15.23;;;1.90;99.90;;;;;;5097453;28;20463;-67
2023/12/08 02:04:01;;;;;;;23.52;15.23;;;1.70;99.90;;;;;;5096947;28;20092;-67
2023/12/08 02:06:27;;;;;;;21.67;12.85;;;1.70;99.90;;;;;;5097221;28;20502;-67
2023/12/08 02:08:53;;;;;;;14.57;7.40;;;1.70;99.90;;;;;;5096994;28;20044;-67
2023/12/08 02:11:19;;;;;;;16.15;8.93;;;1.70;99.90;;;;;;5096896;28;20048;-67
2023/12/08 02:13:46;;;;;;;23.48;13.98;;;1.70;99.90;;;;;;5096890;28;20122;-67
2023/12/08 02:16:18;;;;;;;26.38;15.35;;;1.70;99.90;;;;;;5096210;28;20054;-68
2023/12/08 02:18:44;;;;;;;24.65;16.33;;;1.70;99.90;;;;;;5080028;28;20043;-67
2023/12/08 02:21:13;;;;;;;24.10;13.50;;;1.60;99.90;;;;;;5097034;28;20042;-67
2023/12/08 02:23:48;;;;;;;26.60;16.80;;;1.60;99.90;;;;;;5079767;28;20122;-67
2023/12/08 02:26:14;;;;;;;26.67;16.58;;;1.60;99.90;;;;;;5096589;28;20044;-67
2023/12/08 02:28:40;;;;;;;25.45;16.40;;;1.60;99.90;;;;;;5096442;28;20047;-67
2023/12/08 02:31:10;;;;;;;27.70;18.13;;;1.80;99.90;;;;;;5079772;28;20058;-67
2023/12/08 02:33:38;;;;;;;18.25;11.13;;;1.70;99.90;;;;;;5096495;28;20052;-67
2023/12/08 02:36:06;;;;;;;24.67;13.88;;;1.60;99.90;;;;;;5096761;28;20058;-67
2023/12/08 02:38:35;;;;;;;24.60;15.25;;;1.60;99.90;;;;;;5096305;28;20518;-67
2023/12/08 02:41:01;;;;;;;23.80;15.20;;;1.60;99.90;;;;;;5114603;28;20118;-67
2023/12/08 02:43:27;;;;;;;12.55;5.90;;;1.70;99.90;;;;;;5096306;28;20451;-67
2023/12/08 02:45:53;;;;;;;22.23;13.27;;;1.70;99.90;;;;;;5096636;28;20396;-67
2023/12/08 02:48:19;;;;;;;25.55;14.40;;;1.70;99.90;;;;;;5079295;28;20039;-67
2023/12/08 02:50:44;;;;;;;24.73;15.48;;;1.70;99.90;;;;;;5062550;28;20540;-67
2023/12/08 02:53:10;;;;;;;26.05;15.93;;;1.60;99.90;;;;;;5096084;28;20036;-67
2023/12/08 02:55:36;;;;;;;26.48;16.25;;;1.60;99.90;;;;;;5095906;28;20056;-67
2023/12/08 02:58:02;;;;;;;13.52;6.82;;;1.70;99.90;;;;;;5096081;28;20044;-67
2023/12/08 03:00:27;;;;;;;22.92;11.98;;;1.60;99.90;;;;;;5095865;28;20051;-67
2023/12/08 03:02:53;;;;;;;16.63;7.40;;;1.60;99.90;;;;;;5095865;28;20035;-67
2023/12/08 03:05:19;;;;;;;20.30;10.70;;;1.70;99.90;;;;;;5095896;28;20100;-67
2023/12/08 03:07:44;;;;;;;19.98;11.80;;;1.60;99.90;;;;;;5096089;28;20039;-67
2023/12/08 03:10:10;;;;;;;20.88;12.48;;;1.60;99.90;;;;;;5095828;28;20071;-68
2023/12/08 03:12:36;;;;;;;22.40;13.52;;;1.60;99.90;;;;;;5062571;28;20039;-67
2023/12/08 03:15:02;;;;;;;20.60;12.52;;;1.60;99.90;;;;;;5096022;28;20047;-67
2023/12/08 03:17:27;;;;;;;15.85;8.50;;;1.60;99.90;;;;;;5095430;28;20050;-68
2023/12/08 03:19:53;;;;;;;22.92;14.48;;;1.60;99.90;;;;;;5078708;28;20148;-67
2023/12/08 03:22:19;;;;;;;25.10;14.77;;;1.60;99.90;;;;;;5095391;28;20074;-68
2023/12/08 03:24:45;;;;;;;18.85;11.20;;;1.60;99.90;;;;;;5095455;28;20043;-68
2023/12/08 03:27:10;;;;;;;22.15;13.23;;;1.60;99.90;;;;;;5094714;28;20069;-67
2023/12/08 03:29:40;;;;;;;20.15;11.05;;;1.60;99.90;;;;;;5078749;28;20070;-73
2023/12/08 03:32:06;;;;;;;12.35;7.25;;;1.60;99.90;;;;;;5095748;28;20051;-72
2023/12/08 03:34:32;;;;;;;19.50;10.88;;;1.60;99.90;;;;;;5095342;28;20047;-72
2023/12/08 03:36:58;;;;;;;11.23;6.18;;;1.70;99.90;;;;;;5113543;28;20114;-72
2023/12/08 03:39:24;;;;;;;20.85;12.02;;;1.70;99.90;;;;;;5078490;28;20034;-72
2023/12/08 03:41:49;;;;;;;17.15;8.50;;;1.60;99.90;;;;;;5078605;28;20027;-72
2023/12/08 03:44:15;;;;;;;24.50;15.00;;;1.60;99.90;;;;;;5095418;28;20075;-72
2023/12/08 03:46:44;;;;;;;26.52;16.80;;;1.60;99.90;;;;;;5095297;28;20032;-72
2023/12/08 03:49:10;;;;;;;28.92;16.00;;;1.50;99.90;;;;;;5095373;28;20047;-71
2023/12/08 03:51:36;;;;;;;27.35;17.90;;;1.50;99.90;;;;;;5094806;28;20161;-72
2023/12/08 03:54:02;;;;;;;27.42;17.67;;;1.40;99.90;;;;;;5095070;28;20039;-72
2023/12/08 03:56:27;;;;;;;26.50;16.27;;;1.40;99.90;;;;;;5094903;28;20136;-72
2023/12/08 03:58:53;;;;;;;25.75;14.75;;;1.40;99.90;;;;;;5078015;28;20499;-72
2023/12/08 04:01:19;;;;;;;29.70;18.50;;;1.30;99.90;;;;;;5094797;28;20403;-73
2023/12/08 04:03:46;;;;;;;30.23;19.20;;;1.30;99.90;;;;;;5094878;28;20093;-72
2023/12/08 04:06:12;;;;;;;21.75;11.73;;;1.20;99.90;;;;;;5078166;28;20044;-72
2023/12/08 04:08:38;;;;;;;28.25;16.48;;;1.20;99.90;;;;;;5095474;28;20046;-73
2023/12/08 04:11:04;;;;;;;26.92;15.38;;;1.30;99.90;;;;;;5095117;28;20046;-72
2023/12/08 04:13:30;;;;;;;26.35;14.07;;;1.30;99.90;;;;;;5095258;28;20126;-72
2023/12/08 04:15:55;;;;;;;32.60;19.25;;;1.30;99.90;;;;;;5094946;28;20092;-72
2023/12/08 04:18:21;;;;;;;30.42;18.77;;;1.20;99.90;;;;;;5077795;28;20411;-72
2023/12/08 04:20:47;;;;;;;30.10;17.65;;;1.10;99.90;;;;;;5094979;28;20093;-72
2023/12/08 04:23:12;;;;;;;31.73;20.75;;;1.20;99.90;;;;;;5094605;28;20135;-72
2023/12/08 04:25:38;;;;;;;29.52;19.08;;;1.10;99.90;;;;;;5095057;28;20040;-72
2023/12/08 04:28:04;;;;;;;30.40;18.33;;;1.10;99.90;;;;;;5094534;28;20047;-72
2023/12/08 04:30:30;;;;;;;27.05;14.77;;;1.20;99.90;;;;;;5094641;28;20047;-72
2023/12/08 04:32:56;;;;;;;29.48;17.80;;;1.10;99.90;;;;;;5078087;28;20066;-72
2023/12/08 04:35:23;;;;;;;31.17;19.45;;;1.10;99.90;;;;;;5094716;28;20051;-72
2023/12/08 04:37:50;;;;;;;28.75;18.77;;;1.20;99.90;;;;;;5094493;28;20048;-72
2023/12/08 04:40:16;;;;;;;21.27;12.30;;;1.20;99.90;;;;;;5064853;28;20039;-72
2023/12/08 04:42:42;;;;;;;19.50;11.10;;;1.30;99.90;;;;;;5098622;28;20046;-72
2023/12/08 04:45:09;;;;;;;27.30;17.75;;;1.20;99.90;;;;;;5098862;28;20039;-72
2023/12/08 04:47:36;;;;;;;29.17;18.00;;;1.20;99.90;;;;;;5098499;28;20100;-72
2023/12/08 04:50:02;;;;;;;30.05;19.38;;;1.20;99.90;;;;;;5098394;28;20036;-72
2023/12/08 04:52:28;;;;;;;27.50;17.15;;;1.20;99.90;;;;;;5098332;28;20434;-72
2023/12/08 04:54:54;;;;;;;32.25;19.02;;;1.20;99.90;;;;;;5098214;28;20062;-72
2023/12/08 04:57:20;;;;;;;33.10;21.05;;;1.20;99.90;;;;;;5081399;28;20043;-72
2023/12/08 04:59:46;;;;;;;33.60;18.95;;;1.20;99.90;;;;;;5098223;28;20126;-72
2023/12/08 05:02:11;;;;;;;32.25;19.83;;;1.20;99.90;;;;;;5098123;28;20036;-72
2023/12/08 05:04:37;;;;;;;34.53;21.33;;;1.20;99.90;;;;;;5080717;28;20043;-72
2023/12/08 05:07:03;;;;;;;34.33;21.27;;;1.20;99.90;;;;;;5098126;28;20066;-72
2023/12/08 05:09:29;;;;;;;33.53;21.33;;;1.10;99.90;;;;;;5098248;28;20036;-72
2023/12/08 05:11:55;;;;;;;33.45;20.67;;;1.10;99.90;;;;;;5064578;28;20046;-72
2023/12/08 05:14:20;;;;;;;33.00;20.85;;;1.10;99.90;;;;;;5098078;28;20148;-72
2023/12/08 05:16:46;;;;;;;34.72;20.63;;;1.10;99.90;;;;;;5098273;28;20549;-72
2023/12/08 05:19:12;;;;;;;34.03;19.73;;;1.10;99.90;;;;;;5097786;28;20043;-72
2023/12/08 05:21:37;;;;;;;40.42;23.38;;;1.20;99.90;;;;;;5097913;28;20498;-72
2023/12/08 05:24:03;;;;;;;36.83;22.75;;;1.10;99.90;;;;;;5097891;28;20151;-72
2023/12/08 05:26:30;;;;;;;33.90;22.13;;;1.10;99.90;;;;;;5097715;28;20038;-72
2023/12/08 05:28:56;;;;;;;33.90;20.02;;;1.10;99.90;;;;;;5097688;28;20128;-72
2023/12/08 05:31:22;;;;;;;32.00;18.05;;;1.10;99.90;;;;;;5097684;28;20173;-72
2023/12/08 05:33:48;;;;;;;34.38;20.67;;;1.20;99.90;;;;;;5097815;28;20062;-72
2023/12/08 05:36:14;;;;;;;33.08;19.02;;;1.10;99.90;;;;;;5097699;28;20053;-72
2023/12/08 05:38:40;;;;;;;33.28;18.60;;;1.10;99.90;;;;;;5097507;28;20525;-72
2023/12/08 05:41:07;;;;;;;28.33;17.98;;;1.10;99.90;;;;;;5097584;28;20070;-72
2023/12/08 05:43:33;;;;;;;32.47;19.30;;;1.10;99.90;;;;;;5097468;28;20490;-72
2023/12/08 05:45:59;;;;;;;34.70;20.20;;;1.10;99.90;;;;;;5080656;28;20071;-72
2023/12/08 05:48:24;;;;;;;35.45;20.10;;;1.10;99.90;;;;;;5080567;28;20491;-67
2023/12/08 05:50:50;;;;;;;32.72;20.23;;;1.10;99.90;;;;;;5096320;28;20143;-67
2023/12/08 05:53:16;;;;;;;37.28;21.00;;;1.10;99.90;;;;;;5080203;28;20130;-67
2023/12/08 05:55:41;;;;;;;32.17;19.42;;;1.00;99.90;;;;;;5080193;28;20059;-67
2023/12/08 05:58:07;;;;;;;38.88;23.50;;;1.10;99.90;;;;;;5097133;28;20090;-67
2023/12/08 06:00:33;;;;;;;39.05;23.23;;;1.10;99.90;;;;;;5097396;28;20039;-67
2023/12/08 06:02:59;;;;;;;36.38;20.30;;;1.00;99.90;;;;;;5097259;28;20036;-67
2023/12/08 06:05:25;;;;;;;37.38;22.48;;;1.00;99.90;;;;;;5097095;28;20051;-67
2023/12/08 06:07:51;;;;;;;28.73;15.32;;;1.10;99.90;;;;;;5096888;28;20040;-67
2023/12/08 06:10:16;;;;;;;28.35;16.23;;;1.10;99.90;;;;;;5080224;28;20043;-67
2023/12/08 06:12:42;;;;;;;30.35;17.08;;;1.10;99.90;;;;;;5080450;28;20036;-67
2023/12/08 06:15:09;;;;;;;32.88;19.08;;;1.10;99.90;;;;;;5097063;28;20044;-67
2023/12/08 06:17:36;;;;;;;20.85;10.25;;;1.20;99.90;;;;;;5096743;28;20081;-67
2023/12/08 06:20:04;;;;;;;25.90;13.98;;;1.20;99.90;;;;;;5097128;28;20035;-67
2023/12/08 06:22:31;;;;;;;31.08;18.10;;;1.20;99.90;;;;;;5080146;28;20042;-67
2023/12/08 06:24:56;;;;;;;33.50;19.52;;;1.20;99.90;;;;;;5079898;28;20074;-67
2023/12/08 06:27:22;;;;;;;32.50;17.45;;;1.20;99.90;;;;;;5096767;28;20120;-67
2023/12/08 06:29:50;;;;;;;20.08;10.15;;;1.20;99.90;;;;;;5079749;28;20055;-67
2023/12/08 06:32:18;;;;;;;31.60;19.00;;;1.10;99.90;;;;;;5096666;28;20043;-67
2023/12/08 06:34:46;;;;;;;30.08;15.55;;;1.10;99.90;;;;;;5096490;28;20044;-67
2023/12/08 06:37:12;;;;;;;24.40;13.43;;;1.10;99.90;;;;;;5096276;28;20130;-66
2023/12/08 06:39:39;;;;;;;29.38;15.63;;;1.10;99.90;;;;;;5096668;28;20122;-67
2023/12/08 06:42:06;;;;;;;35.20;18.90;;;1.10;99.90;;;;;;5079733;28;20049;-67
2023/12/08 06:44:31;;;;;;;41.42;22.00;;;1.10;99.90;;;;;;5096319;28;20119;-67
2023/12/08 06:46:58;;;;;;;39.55;22.35;;;1.10;99.90;;;;;;5096295;28;20122;-67
2023/12/08 06:49:24;;;;;;;18.75;8.95;;;1.10;99.90;;;;;;5096197;28;20044;-68
2023/12/08 06:51:50;;;;;;;39.13;18.85;;;1.10;99.90;;;;;;5114543;28;20040;-67
2023/12/08 06:54:16;;;;;;;33.58;17.50;;;1.10;99.90;;;;;;5095999;28;20042;-67
2023/12/08 06:56:42;;;;;;;42.15;24.08;;;1.10;99.90;;;;;;5095958;28;20065;-67
2023/12/08 06:59:08;;;;;;;35.25;19.60;;;1.10;99.90;;;;;;5096194;28;20047;-72
2023/12/08 07:01:37;;;;;;;16.83;7.70;;;1.10;99.90;;;;;;5095726;28;20039;-72
2023/12/08 07:04:03;;;;;;;39.00;20.85;;;1.10;99.90;;;;;;5096139;28;20391;-72
2023/12/08 07:06:30;;;;;;;33.88;19.55;;;1.10;99.90;;;;;;5095922;28;20038;-72
2023/12/08 07:08:56;;;;;;;27.73;13.27;;;1.10;99.90;;;;;;5095889;28;20071;-72
2023/12/08 07:11:22;;;;;;;39.35;22.58;;;1.10;99.90;;;;;;5079193;28;20031;-72
2023/12/08 07:13:48;;;;;;;36.22;19.42;;;1.10;99.90;;;;;;5095820;28;20126;-71
2023/12/08 07:16:13;;;;;;;38.50;20.33;;;1.10;99.90;;;;;;5078923;28;20083;-72
2023/12/08 07:18:40;;;;;;;31.15;16.85;;;1.10;99.90;;;;;;5078614;28;20093;-72
2023/12/08 07:21:05;;;;;;;23.65;9.93;;;1.10;99.90;;;;;;5095896;28;20040;-72
2023/12/08 07:23:31;;;;;;;20.95;10.00;;;1.10;99.90;;;;;;5095439;28;20036;-72
2023/12/08 07:25:57;;;;;;;24.98;13.05;;;1.10;99.90;;;;;;5095794;28;20107;-72
2023/12/08 07:28:23;;;;;;;38.28;19.55;;;1.30;99.90;;;;;;5095704;28;20040;-72
2023/12/08 07:30:48;;;;;;;36.90;19.65;;;1.10;99.90;;;;;;5095665;28;20039;-72
2023/12/08 07:33:14;;;;;;;22.13;11.40;;;1.10;99.90;;;;;;5095593;28;20035;-72
2023/12/08 07:35:40;;;;;;;44.30;26.17;;;1.10;99.90;;;;;;5095536;28;20045;-72
2023/12/08 07:38:06;;;;;;;20.33;8.65;;;1.10;99.90;;;;;;5095328;28;20043;-72
2023/12/08 07:40:32;;;;;;;30.35;16.67;;;1.20;99.90;;;;;;5095221;28;20071;-72
2023/12/08 07:42:57;;;;;;;26.60;14.27;;;1.20;99.90;;;;;;5095183;28;20044;-72
2023/12/08 07:45:23;;;;;;;24.52;12.43;;;1.20;99.90;;;;;;5095222;28;20084;-72
2023/12/08 07:47:49;;;;;;;14.65;7.63;;;1.20;99.90;;;;;;5094851;28;20050;-72
2023/12/08 07:50:15;;;;;;;26.98;13.55;;;1.30;99.90;;;;;;5078453;28;20044;-72
2023/12/08 07:52:41;;;;;;;16.90;8.43;;;1.30;99.90;;;;;;5094941;28;20093;-72
2023/12/08 07:55:08;;;;;;;16.63;8.52;;;1.20;99.90;;;;;;5095046;28;20147;-72
2023/12/08 07:57:34;;;;;;;29.45;16.42;;;1.20;99.90;;;;;;5094995;28;20051;-72
2023/12/08 08:00:00;;;;;;;18.98;9.13;;;1.20;99.90;;;;;;5078168;28;20085;-72
2023/12/08 08:02:26;;;;;;;27.25;14.55;;;1.20;99.90;;;;;;5095117;28;20093;-72
2023/12/08 08:04:52;;;;;;;22.65;11.80;;;1.20;99.90;;;;;;5095017;28;20043;-72
2023/12/08 08:07:18;;;;;;;23.08;12.85;;;1.20;99.90;;;;;;5078320;28;20118;-72
2023/12/08 08:09:43;;;;;;;34.35;18.55;;;1.20;99.90;;;;;;5094886;28;20074;-67
2023/12/08 08:12:09;;;;;;;37.90;20.95;;;1.30;99.90;;;;;;5094895;28;20073;-67
2023/12/08 08:14:35;;;;;;;30.13;15.57;;;1.30;99.90;;;;;;5094575;28;20059;-67
2023/12/08 08:17:01;;;;;;;26.50;14.00;;;1.30;99.90;;;;;;5094812;28;20067;-67
2023/12/08 08:19:27;;;;;;;19.50;10.48;;;1.30;99.90;;;;;;5094799;28;20075;-67
2023/12/08 08:21:53;;;;;;;42.65;24.23;;;1.30;99.90;;;;;;5078031;28;20038;-67
2023/12/08 08:24:19;;;;;;;37.63;21.00;;;1.30;99.90;;;;;;5094543;28;20035;-67
2023/12/08 08:26:45;;;;;;;37.22;21.77;;;1.30;99.90;;;;;;5094809;28;20027;-67
2023/12/08 08:29:11;;;;;;;39.25;22.67;;;1.30;99.90;;;;;;5094587;28;20044;-67
2023/12/08 08:31:37;;;;;;;32.67;18.08;;;1.30;99.90;;;;;;5094958;28;20169;-67
2023/12/08 08:34:03;;;;;;;37.70;21.92;;;1.30;99.90;;;;;;5094705;28;20118;-67
2023/12/08 08:36:29;;;;;;;33.90;16.70;;;1.30;99.90;;;;;;5094634;28;20048;-67
2023/12/08 08:38:55;;;;;;;34.08;18.58;;;1.30;99.90;;;;;;5094723;28;20055;-67
2023/12/08 08:41:22;;;;;;;35.10;19.02;;;1.30;99.90;;;;;;5094688;28;20039;-67
2023/12/08 08:43:48;;;;;;;30.63;15.95;;;1.30;99.90;;;;;;5094526;28;20040;-67
2023/12/08 08:46:14;;;;;;;41.13;23.52;;;1.30;99.90;;;;;;5094780;28;20040;-67
2023/12/08 08:48:40;;;;;;;29.10;15.02;;;1.20;99.90;;;;;;5094514;28;20054;-67
2023/12/08 08:51:06;;;;;;;33.42;18.23;;;1.30;99.90;;;;;;5077702;28;20086;-67
2023/12/08 08:53:32;;;;;;;19.85;9.85;;;1.30;99.90;;;;;;5077737;28;20040;-67
2023/12/08 08:55:58;;;;;;;28.90;14.30;;;1.30;99.90;;;;;;5094274;28;20415;-67
2023/12/08 08:58:24;;;;;;;35.60;19.42;;;1.30;99.90;;;;;;5094520;28;20040;-67
2023/12/08 09:00:50;;;;;;;19.08;10.25;;;1.30;99.90;;;;;;5094607;28;20086;-67
2023/12/08 09:03:16;;;;;;;34.13;18.80;;;1.30;99.90;;;;;;5094365;28;20044;-67
2023/12/08 09:05:41;;;;;;;34.53;18.67;;;1.30;99.90;;;;;;5094564;28;20123;-66
2023/12/08 09:08:11;;;;;;;39.50;21.85;;;1.30;99.90;;;;;;5094323;28;20044;-66
2023/12/08 09:10:39;;;;;;;40.92;23.40;;;1.30;99.90;;;;;;5095075;28;20152;-66
2023/12/08 09:13:04;;;;;;;22.88;11.98;;;1.30;99.90;;;;;;5094691;28;20048;-67
2023/12/08 09:15:30;;;;;;;16.85;8.50;;;1.30;99.90;;;;;;5094566;28;20039;-67
2023/12/08 09:17:56;;;;;;;34.97;19.58;;;1.40;99.90;;;;;;5077396;28;20083;-66
2023/12/08 09:20:23;;;;;;;33.13;17.90;;;1.30;99.90;;;;;;5094466;28;20449;-72
2023/12/08 09:22:50;;;;;;;35.67;21.75;;;1.30;99.90;;;;;;5094479;28;20079;-72
2023/12/08 09:25:17;;;;;;;31.70;18.67;;;1.30;99.90;;;;;;5094579;28;20048;-71
2023/12/08 09:27:43;;;;;;;30.98;17.70;;;1.30;99.90;;;;;;5097850;28;20066;-71
2023/12/08 09:30:09;;;;;;;29.27;15.32;;;1.30;99.90;;;;;;5097727;28;20048;-72
2023/12/08 09:32:35;;;;;;;36.42;20.33;;;1.40;99.90;;;;;;5097681;28;20035;-72
2023/12/08 09:35:01;;;;;;;34.03;20.00;;;1.40;99.90;;;;;;5097955;28;20039;-72
2023/12/08 09:37:26;;;;;;;30.30;16.35;;;1.40;99.90;;;;;;5080414;28;20035;-72
2023/12/08 09:39:52;;;;;;;30.00;17.77;;;1.40;99.90;;;;;;5097582;28;20085;-72
2023/12/08 09:42:41;;;;;;;28.45;15.43;;;1.40;99.90;;;;;;5097833;28;20067;-72
2023/12/08 09:45:12;;;;;;;34.10;17.95;;;1.40;99.90;;;;;;5097836;28;20044;-72
2023/12/08 09:47:40;;;;;;;17.85;8.43;;;1.40;99.90;;;;;;5097368;28;20043;-72
2023/12/08 09:50:09;;;;;;;36.92;20.33;;;1.40;99.90;;;;;;5097254;28;20126;-72
2023/12/08 09:52:35;;;;;;;36.88;19.15;;;1.40;99.90;;;;;;5097156;28;20042;-72
2023/12/08 09:55:01;;;;;;;36.88;23.30;;;1.50;99.90;;;;;;5097330;28;20059;-72
2023/12/08 09:57:33;;;;;;;35.75;20.35;;;1.40;99.90;;;;;;5097241;28;20127;-72
2023/12/08 10:00:01;;;;;;;33.38;20.00;;;1.40;99.90;;;;;;5097336;28;20046;-72
2023/12/08 10:02:28;;;;;;;26.98;12.80;;;1.50;99.90;;;;;;5097181;28;20074;-72
2023/12/08 10:04:53;;;;;;;38.13;21.20;;;1.50;99.90;;;;;;5097382;28;20040;-72
2023/12/08 10:07:20;;;;;;;36.05;20.30;;;1.40;99.90;;;;;;5096911;28;20173;-72
2023/12/08 10:09:46;;;;;;;36.35;21.08;;;1.50;99.90;;;;;;5080582;28;20043;-72
2023/12/08 10:12:12;;;;;;;34.05;19.08;;;1.50;99.90;;;;;;5080079;28;20057;-72
2023/12/08 10:14:54;;;;;;;34.97;21.38;;;1.50;99.90;;;;;;5080344;28;20126;-72
2023/12/08 10:17:20;;;;;;;34.80;21.05;;;1.50;99.90;;;;;;5013692;28;20161;-72
2023/12/08 10:19:46;;;;;;;38.10;21.02;;;1.50;99.90;;;;;;5073685;28;20487;-72
2023/12/08 10:22:12;;;;;;;38.38;22.35;;;1.50;99.90;;;;;;5096722;28;20123;-72
2023/12/08 10:24:40;;;;;;;35.90;20.08;;;1.50;99.90;;;;;;5096593;28;20407;-72
2023/12/08 10:27:09;;;;;;;31.20;17.58;;;1.50;99.90;;;;;;5096996;28;20395;-72
2023/12/08 10:29:34;;;;;;;31.45;18.63;;;1.50;99.90;;;;;;5097065;28;20066;-72
2023/12/08 10:32:01;;;;;;;35.92;20.58;;;1.50;99.90;;;;;;5096504;28;20043;-72
2023/12/08 10:34:27;;;;;;;38.53;23.63;;;1.60;99.90;;;;;;5079543;28;20046;-72
2023/12/08 10:36:57;;;;;;;40.10;24.13;;;1.60;99.90;;;;;;5095907;28;20071;-73
2023/12/08 10:39:24;;;;;;;38.17;20.85;;;1.60;99.90;;;;;;5096180;28;20075;-72
2023/12/08 10:41:54;;;;;;;35.92;19.52;;;1.60;99.90;;;;;;5079446;28;20447;-71
2023/12/08 10:44:23;;;;;;;39.50;22.75;;;1.60;99.90;;;;;;5096639;28;20390;-72
2023/12/08 10:46:49;;;;;;;42.00;23.55;;;1.60;99.90;;;;;;5096591;28;20040;-72
2023/12/08 10:49:21;;;;;;;39.92;22.08;;;1.60;99.90;;;;;;5079464;28;20040;-72
2023/12/08 10:51:48;;;;;;;39.20;21.70;;;1.60;99.90;;;;;;5096419;28;20169;-73
2023/12/08 10:54:18;;;;;;;41.13;22.35;;;1.70;99.90;;;;;;5096110;28;20043;-72
2023/12/08 10:56:48;;;;;;;38.80;20.80;;;1.70;99.90;;;;;;5095868;28;20091;-72
2023/12/08 10:59:19;;;;;;;27.77;14.52;;;1.70;99.90;;;;;;5079085;28;20046;-72
2023/12/08 11:01:46;;;;;;;45.25;24.88;;;1.70;99.90;;;;;;5079201;28;20031;-72
2023/12/08 11:04:15;;;;;;;50.55;28.60;;;1.60;99.90;;;;;;5096147;28;20390;-71
2023/12/08 11:06:56;;;;;;;42.17;22.85;;;1.70;99.90;;;;;;5095827;28;20437;-72
2023/12/08 11:09:24;;;;;;;40.03;19.97;;;1.60;99.90;;;;;;5095944;28;20057;-72
2023/12/08 11:11:56;;;;;;;53.58;28.52;;;1.70;99.90;;;;;;5095866;28;20048;-72
2023/12/08 11:14:38;;;;;;;58.75;29.95;;;1.70;99.90;;;;;;5096001;28;20372;-72
2023/12/08 11:17:10;;;;;;;52.00;24.10;;;1.70;99.90;;;;;;5113950;28;20039;-72
2023/12/08 11:19:36;;;;;;;;;;;1.70;99.90;;;;;;5096161;28;20092;-72
2023/12/08 11:22:02;;;;;;;53.05;27.92;;;1.70;99.90;;;;;;5095738;28;19922;-72
2023/12/08 11:24:28;;;;;;;57.70;25.85;;;1.70;99.90;;;;;;5078624;28;20480;-72
2023/12/08 11:27:18;;;;;;;60.83;30.85;;;1.70;99.90;;;;;;5079090;28;20440;-72
2023/12/08 11:29:47;;;;;;;66.18;31.58;;;1.70;99.90;;;;;;5095681;28;20118;-72
2023/12/08 11:32:32;;;;;;;58.17;27.98;;;1.70;99.90;;;;;;5095506;28;20039;-72
2023/12/08 11:35:12;;;;;;;59.88;25.30;;;1.80;99.90;;;;;;5095466;28;20069;-72
2023/12/08 11:37:40;;;;;;;70.18;30.50;;;1.80;99.90;;;;;;5095301;28;20043;-72
2023/12/08 11:40:10;;;;;;;64.60;28.50;;;1.80;99.90;;;;;;5095790;28;20044;-72
2023/12/08 11:42:37;;;;;;;65.10;27.20;;;1.70;99.90;;;;;;5095327;28;20077;-72
2023/12/08 11:45:07;;;;;;;64.78;26.67;;;1.70;99.90;;;;;;5095549;28;20392;-72
2023/12/08 11:47:34;;;;;;;70.18;30.13;;;1.80;99.90;;;;;;5094877;28;20039;-72
2023/12/08 11:50:05;;;;;;;56.95;27.55;;;1.80;99.90;;;;;;5077945;28;20043;-72
2023/12/08 11:52:37;;;;;;;72.25;33.75;;;1.80;99.90;;;;;;5095199;28;20040;-72
2023/12/08 11:55:24;;;;;;;87.15;34.47;;;1.80;99.90;;;;;;5093248;28;20109;-72
2023/12/08 11:57:59;;;;;;;73.30;31.13;;;1.80;99.90;;;;;;5074659;28;20058;-72
2023/12/08 12:00:26;;;;;;;38.75;17.65;;;1.80;99.90;;;;;;5074775;28;20090;-72
2023/12/08 12:02:53;;;;;;;69.80;32.45;;;1.80;99.90;;;;;;5074151;28;20555;-72
2023/12/08 12:05:19;;;;;;;73.45;33.47;;;1.90;99.90;;;;;;5074790;28;20083;-72
2023/12/08 12:07:49;;;;;;;72.05;30.02;;;1.90;99.90;;;;;;5075068;28;20044;-72
2023/12/08 12:10:26;;;;;;;69.78;27.38;;;1.90;99.90;;;;;;5073267;28;20048;-71
2023/12/08 12:13:05;;;;;;;77.10;35.17;;;1.90;99.90;;;;;;5057933;28;20558;-72
2023/12/08 12:15:35;;;;;;;81.80;37.05;;;1.90;99.90;;;;;;5074299;28;20040;-71
2023/12/08 12:18:02;;;;;;;86.85;38.22;;;1.90;99.90;;;;;;5074595;28;20044;-71
2023/12/08 12:20:29;;;;;;;83.18;36.17;;;1.90;99.90;;;;;;5074796;28;20044;-71
2023/12/08 12:22:56;;;;;;;76.95;34.38;;;1.90;99.90;;;;;;5074936;28;20503;-72
2023/12/08 12:25:22;;;;;;;79.05;34.13;;;1.90;99.90;;;;;;5074912;28;20549;-72
2023/12/08 12:27:47;;;;;;;87.78;35.75;;;1.90;99.90;;;;;;5074779;28;20044;-72
2023/12/08 12:30:15;;;;;;;85.07;36.95;;;1.90;99.90;;;;;;5074276;28;20043;-72
2023/12/08 12:32:41;;;;;;;81.57;32.85;;;1.90;99.90;;;;;;5074801;28;20511;-72
2023/12/08 12:35:07;;;;;;;83.25;33.63;;;1.90;99.90;;;;;;5057788;28;20048;-72